createdAt,value
2022-08-20T00:02:14.188Z,100.00
2022-08-20T00:04:42.296Z,100.00
2022-08-20T00:07:11.566Z,100.00
2022-08-20T00:09:39.451Z,100.00
2022-08-20T00:12:08.579Z,100.00
2022-08-20T00:14:36.735Z,100.00
2022-08-20T00:17:06.340Z,100.00
2022-08-20T00:19:35.126Z,100.00
2022-08-20T00:22:03.185Z,100.00
2022-08-20T00:24:32.970Z,100.00
2022-08-20T00:27:00.895Z,100.00
2022-08-20T00:29:28.947Z,100.00
2022-08-20T00:31:56.844Z,100.00
2022-08-20T00:34:24.818Z,100.00
2022-08-20T00:36:52.912Z,100.00
2022-08-20T00:39:20.789Z,100.00
2022-08-20T00:41:52.097Z,100.00
2022-08-20T00:44:22.969Z,100.00
2022-08-20T00:46:52.851Z,100.00
2022-08-20T00:49:25.943Z,100.00
2022-08-20T00:51:58.111Z,100.00
2022-08-20T00:54:29.314Z,100.00
2022-08-20T00:57:03.465Z,100.00
2022-08-20T00:59:33.770Z,100.00
2022-08-20T01:02:02.565Z,100.00
2022-08-20T01:04:33.636Z,100.00
2022-08-20T01:07:02.470Z,100.00
2022-08-20T01:09:49.933Z,100.00
2022-08-20T01:12:20.404Z,100.00
2022-08-20T01:14:48.566Z,100.00
2022-08-20T01:17:20.115Z,100.00
2022-08-20T01:19:53.168Z,100.00
2022-08-20T01:22:46.971Z,100.00
2022-08-20T01:25:26.434Z,100.00
2022-08-20T01:27:57.313Z,100.00
2022-08-20T01:30:28.553Z,100.00
2022-08-20T01:32:56.831Z,100.00
2022-08-20T01:35:25.989Z,100.00
2022-08-20T01:37:54.832Z,100.00
2022-08-20T01:40:37.504Z,100.00
2022-08-20T01:43:09.131Z,100.00
2022-08-20T01:45:40.201Z,100.00
2022-08-20T01:48:09.695Z,100.00
2022-08-20T01:50:41.283Z,100.00
2022-08-20T01:53:17.996Z,100.00
2022-08-20T01:55:46.219Z,100.00
2022-08-20T01:58:15.665Z,100.00
2022-08-20T02:00:44.258Z,100.00
2022-08-20T02:03:12.516Z,100.00
2022-08-20T02:05:40.545Z,100.00
2022-08-20T02:08:08.395Z,100.00
2022-08-20T02:10:36.577Z,100.00
2022-08-20T02:13:08.323Z,100.00
2022-08-20T02:15:39.956Z,100.00
2022-08-20T02:18:15.503Z,100.00
2022-08-20T02:20:44.444Z,100.00
2022-08-20T02:23:15.501Z,100.00
2022-08-20T02:25:47.476Z,100.00
2022-08-20T02:28:18.082Z,100.00
2022-08-20T02:30:48.193Z,100.00
2022-08-20T02:33:18.741Z,99.00
2022-08-20T02:35:49.438Z,99.81
2022-08-20T02:38:17.661Z,100.00
2022-08-20T02:40:49.095Z,100.00
2022-08-20T02:43:20.216Z,100.00
2022-08-20T02:45:49.603Z,99.74
2022-08-20T02:48:20.906Z,100.00
2022-08-20T02:50:51.941Z,100.00
2022-08-20T02:53:20.253Z,100.00
2022-08-20T02:55:48.140Z,100.00
2022-08-20T02:58:16.801Z,100.00
2022-08-20T03:00:46.000Z,100.00
2022-08-20T03:03:17.027Z,100.00
2022-08-20T03:05:45.710Z,100.00
2022-08-20T03:08:14.768Z,100.00
2022-08-20T03:10:44.062Z,100.00
2022-08-20T03:13:12.680Z,100.00
2022-08-20T03:15:42.437Z,100.00
2022-08-20T03:18:11.013Z,100.00
2022-08-20T03:20:41.107Z,100.00
2022-08-20T03:23:08.916Z,100.00
2022-08-20T03:25:37.391Z,100.00
2022-08-20T03:28:05.672Z,100.00
2022-08-20T03:30:34.089Z,100.00
2022-08-20T03:33:01.919Z,100.00
2022-08-20T03:35:31.715Z,100.00
2022-08-20T03:38:01.003Z,100.00
2022-08-20T03:40:33.455Z,100.00
2022-08-20T03:43:01.949Z,100.00
2022-08-20T03:45:32.494Z,100.00
2022-08-20T03:48:01.645Z,100.00
2022-08-20T03:50:32.748Z,100.00
2022-08-20T03:53:02.520Z,100.00
2022-08-20T03:55:32.160Z,100.00
2022-08-20T03:58:02.228Z,100.00
2022-08-20T04:00:33.260Z,100.00
2022-08-20T04:03:01.852Z,100.00
2022-08-20T04:05:33.471Z,100.00
2022-08-20T04:08:04.218Z,100.00
2022-08-20T04:10:32.182Z,100.00
2022-08-20T04:13:00.141Z,100.00
2022-08-20T04:15:29.536Z,100.00
2022-08-20T04:17:59.973Z,100.00
2022-08-20T04:20:28.277Z,100.00
2022-08-20T04:22:59.157Z,100.00
2022-08-20T04:25:29.994Z,100.00
2022-08-20T04:28:06.645Z,100.00
2022-08-20T04:30:35.040Z,100.00
2022-08-20T04:33:03.305Z,100.00
2022-08-20T04:35:31.920Z,100.00
2022-08-20T04:38:01.294Z,100.00
2022-08-20T04:40:48.498Z,100.00
2022-08-20T04:43:16.742Z,100.00
2022-08-20T04:45:47.138Z,100.00
2022-08-20T04:48:15.453Z,100.00
2022-08-20T04:50:46.923Z,100.00
2022-08-20T04:53:19.883Z,100.00
2022-08-20T04:55:53.321Z,100.00
2022-08-20T04:58:24.536Z,100.00
2022-08-20T05:00:55.163Z,100.00
2022-08-20T05:03:24.012Z,100.00
2022-08-20T05:05:53.147Z,100.00
2022-08-20T05:08:23.018Z,100.00
2022-08-20T05:10:58.132Z,100.00
2022-08-20T05:13:42.963Z,100.00
2022-08-20T05:16:11.108Z,100.00
2022-08-20T05:18:39.103Z,100.00
2022-08-20T05:21:07.936Z,100.00
2022-08-20T05:23:40.604Z,100.00
2022-08-20T05:26:10.520Z,100.00
2022-08-20T05:28:51.391Z,100.00
2022-08-20T05:31:32.354Z,100.00
2022-08-20T05:34:01.836Z,100.00
2022-08-20T05:36:30.080Z,100.00
2022-08-20T05:38:58.069Z,100.00
2022-08-20T05:41:30.231Z,100.00
2022-08-20T05:44:00.675Z,100.00
2022-08-20T05:46:28.711Z,100.00
2022-08-20T05:48:59.607Z,100.00
2022-08-20T05:51:28.401Z,100.00
2022-08-20T05:53:59.499Z,100.00
2022-08-20T05:56:31.335Z,100.00
2022-08-20T05:59:02.656Z,98.45
2022-08-20T06:01:30.718Z,97.94
2022-08-20T06:04:16.701Z,97.24
2022-08-20T06:06:47.209Z,95.00
2022-08-20T06:09:30.851Z,94.33
2022-08-20T06:12:02.669Z,94.89
2022-08-20T06:14:31.419Z,94.64
2022-08-20T06:17:04.899Z,94.68
2022-08-20T06:19:33.671Z,91.35
2022-08-20T06:22:02.175Z,90.05
2022-08-20T06:24:36.801Z,85.91
2022-08-20T06:27:07.444Z,86.36
2022-08-20T06:29:37.154Z,85.64
2022-08-20T06:32:05.586Z,84.60
2022-08-20T06:34:33.541Z,82.65
2022-08-20T06:37:01.416Z,82.42
2022-08-20T06:39:30.163Z,81.52
2022-08-20T06:41:58.644Z,81.77
2022-08-20T06:44:28.470Z,82.15
2022-08-20T06:47:00.813Z,80.10
2022-08-20T06:49:29.616Z,81.04
2022-08-20T06:52:03.628Z,82.13
2022-08-20T06:54:34.294Z,81.73
2022-08-20T06:57:02.275Z,80.93
2022-08-20T06:59:31.452Z,81.00
2022-08-20T07:01:59.745Z,81.93
2022-08-20T07:04:28.365Z,80.15
2022-08-20T07:06:57.718Z,80.48
2022-08-20T07:09:27.242Z,80.04
2022-08-20T07:11:56.153Z,79.49
2022-08-20T07:14:24.423Z,79.28
2022-08-20T07:16:53.634Z,79.45
2022-08-20T07:19:21.542Z,79.39
2022-08-20T07:21:51.972Z,79.82
2022-08-20T07:24:19.671Z,79.14
2022-08-20T07:26:49.061Z,78.40
2022-08-20T07:29:16.973Z,78.16
2022-08-20T07:32:06.916Z,78.17
2022-08-20T07:34:38.884Z,78.99
2022-08-20T07:37:11.520Z,78.35
2022-08-20T07:39:39.403Z,77.19
2022-08-20T07:42:07.696Z,77.07
2022-08-20T07:46:09.021Z,76.99
2022-08-20T07:48:40.013Z,76.96
2022-08-20T07:51:09.689Z,77.29
2022-08-20T07:53:39.861Z,76.93
2022-08-20T07:56:09.092Z,77.34
2022-08-20T07:58:38.297Z,75.85
2022-08-20T08:01:10.663Z,75.46
2022-08-20T08:03:48.776Z,75.47
2022-08-20T08:06:28.267Z,75.28
2022-08-20T08:08:57.376Z,75.25
2022-08-20T08:11:26.116Z,76.73
2022-08-20T08:13:54.650Z,76.07
2022-08-20T08:16:24.992Z,75.81
2022-08-20T08:18:56.936Z,75.34
2022-08-20T08:21:25.328Z,76.84
2022-08-20T08:23:53.493Z,76.51
2022-08-20T08:26:22.427Z,75.99
2022-08-20T08:28:50.921Z,77.71
2022-08-20T08:31:18.747Z,77.36
2022-08-20T08:33:47.983Z,77.32
2022-08-20T08:36:17.182Z,77.52
2022-08-20T08:38:46.427Z,77.13
2022-08-20T08:41:18.458Z,75.93
2022-08-20T08:43:48.735Z,76.83
2022-08-20T08:46:21.543Z,76.25
2022-08-20T08:48:54.497Z,75.57
2022-08-20T08:51:29.315Z,77.04
2022-08-20T08:54:00.346Z,77.16
2022-08-20T08:56:32.489Z,76.62
2022-08-20T08:59:05.437Z,76.53
2022-08-20T09:01:54.615Z,77.50
2022-08-20T09:04:31.769Z,77.90
2022-08-20T09:07:01.278Z,77.49
2022-08-20T09:09:51.962Z,78.15
2022-08-20T09:12:22.335Z,77.68
2022-08-20T09:14:50.782Z,77.72
2022-08-20T09:17:20.781Z,77.37
2022-08-20T09:19:50.239Z,75.84
2022-08-20T09:22:20.826Z,76.38
2022-08-20T09:24:49.107Z,75.30
2022-08-20T09:27:16.979Z,76.55
2022-08-20T09:29:46.692Z,76.10
2022-08-20T09:32:23.269Z,76.11
2022-08-20T09:35:00.014Z,76.23
2022-08-20T09:37:36.780Z,76.57
2022-08-20T09:40:08.085Z,75.38
2022-08-20T09:42:41.345Z,76.07
2022-08-20T09:45:11.651Z,76.46
2022-08-20T09:47:39.891Z,76.61
2022-08-20T09:50:25.235Z,75.43
2022-08-20T09:52:54.640Z,75.91
2022-08-20T09:55:27.737Z,76.27
2022-08-20T09:57:55.837Z,76.96
2022-08-20T10:00:23.897Z,75.30
2022-08-20T10:02:51.875Z,73.72
2022-08-20T10:05:19.913Z,75.53
2022-08-20T10:07:49.082Z,75.88
2022-08-20T10:10:17.007Z,75.59
2022-08-20T10:12:46.114Z,75.88
2022-08-20T10:15:14.504Z,75.83
2022-08-20T10:17:44.115Z,77.33
2022-08-20T10:20:14.688Z,76.79
2022-08-20T10:22:42.933Z,75.91
2022-08-20T10:25:13.512Z,74.58
2022-08-20T10:27:41.532Z,73.84
2022-08-20T10:30:10.712Z,74.25
2022-08-20T10:32:39.847Z,73.10
2022-08-20T10:35:09.709Z,72.27
2022-08-20T10:37:37.865Z,72.50
2022-08-20T10:40:08.228Z,72.82
2022-08-20T10:42:42.301Z,70.98
2022-08-20T10:45:11.737Z,71.04
2022-08-20T10:47:39.887Z,72.74
2022-08-20T10:50:11.528Z,73.11
2022-08-20T10:52:39.872Z,72.85
2022-08-20T10:55:09.068Z,73.17
2022-08-20T10:57:40.801Z,73.96
2022-08-20T11:00:10.855Z,73.15
2022-08-20T11:02:39.091Z,73.69
2022-08-20T11:05:09.918Z,74.46
2022-08-20T11:08:00.233Z,73.88
2022-08-20T11:10:29.560Z,74.23
2022-08-20T11:12:58.746Z,73.08
2022-08-20T11:15:27.043Z,73.62
2022-08-20T11:17:55.368Z,70.71
2022-08-20T11:20:26.499Z,70.12
2022-08-20T11:22:55.461Z,68.83
2022-08-20T11:25:25.026Z,65.07
2022-08-20T11:27:54.627Z,62.62
2022-08-20T11:30:26.075Z,63.85
2022-08-20T11:32:54.879Z,65.89
2022-08-20T11:35:47.992Z,68.85
2022-08-20T11:38:11.824Z,77.40
2022-08-20T11:40:40.102Z,84.14
2022-08-20T11:43:14.814Z,88.29
2022-08-20T11:45:46.329Z,90.41
2022-08-20T11:48:14.592Z,92.10
2022-08-20T11:50:43.103Z,90.23
2022-08-20T11:53:11.011Z,85.74
2022-08-20T11:55:39.313Z,86.90
2022-08-20T11:58:07.308Z,86.98
2022-08-20T12:00:36.767Z,87.00
2022-08-20T12:03:09.158Z,83.98
2022-08-20T12:05:37.847Z,85.22
2022-08-20T12:08:06.229Z,83.64
2022-08-20T12:10:34.822Z,82.93
2022-08-20T12:13:04.766Z,77.30
2022-08-20T12:15:33.356Z,72.51
2022-08-20T12:18:02.028Z,69.39
2022-08-20T12:20:31.400Z,67.45
2022-08-20T12:22:59.321Z,66.04
2022-08-20T12:25:27.635Z,65.38
2022-08-20T12:27:55.715Z,66.41
2022-08-20T12:30:25.350Z,64.89
2022-08-20T12:32:53.451Z,65.24
2022-08-20T12:35:21.772Z,64.56
2022-08-20T12:37:51.837Z,63.94
2022-08-20T12:40:31.837Z,63.15
2022-08-20T12:43:01.335Z,65.34
2022-08-20T12:45:29.534Z,63.80
2022-08-20T12:48:02.903Z,63.31
2022-08-20T12:50:31.971Z,60.42
2022-08-20T12:53:02.467Z,58.20
2022-08-20T12:55:30.546Z,56.12
2022-08-20T12:58:01.454Z,56.15
2022-08-20T13:00:31.834Z,57.14
2022-08-20T13:03:02.380Z,57.83
2022-08-20T13:05:31.565Z,59.60
2022-08-20T13:08:01.420Z,60.60
2022-08-20T13:10:31.091Z,59.79
2022-08-20T13:12:59.582Z,60.14
2022-08-20T13:15:27.495Z,60.65
2022-08-20T13:17:57.225Z,60.95
2022-08-20T13:20:34.147Z,59.85
2022-08-20T13:23:05.931Z,58.60
2022-08-20T13:25:34.604Z,59.55
2022-08-20T13:28:04.896Z,58.62
2022-08-20T13:30:34.444Z,59.21
2022-08-20T13:33:02.575Z,59.44
2022-08-20T13:35:31.245Z,58.28
2022-08-20T13:37:59.144Z,58.10
2022-08-20T13:40:28.465Z,59.46
2022-08-20T13:42:56.534Z,58.36
2022-08-20T13:45:24.433Z,58.19
2022-08-20T13:47:55.026Z,59.47
2022-08-20T13:50:26.805Z,61.55
2022-08-20T13:52:56.245Z,61.97
2022-08-20T13:55:26.605Z,63.39
2022-08-20T13:57:57.731Z,65.64
2022-08-20T14:00:31.129Z,66.95
2022-08-20T14:03:00.096Z,68.40
2022-08-20T14:05:28.031Z,68.28
2022-08-20T14:07:56.143Z,70.04
2022-08-20T14:10:31.316Z,70.15
2022-08-20T14:13:00.920Z,69.92
2022-08-20T14:15:28.911Z,70.37
2022-08-20T14:17:58.577Z,71.22
2022-08-20T14:20:29.304Z,74.73
2022-08-20T14:23:00.999Z,77.95
2022-08-20T14:25:30.197Z,81.30
2022-08-20T14:27:58.835Z,80.53
2022-08-20T14:30:31.087Z,80.67
2022-08-20T14:32:58.984Z,78.04
2022-08-20T14:35:26.870Z,76.23
2022-08-20T14:37:56.605Z,75.34
2022-08-20T14:40:26.279Z,73.58
2022-08-20T14:42:54.633Z,70.64
2022-08-20T14:45:23.390Z,69.01
2022-08-20T14:47:54.413Z,68.53
2022-08-20T14:50:26.080Z,67.74
2022-08-20T14:52:55.250Z,67.09
2022-08-20T14:55:26.409Z,65.31
2022-08-20T14:57:54.770Z,65.86
2022-08-20T15:00:25.310Z,65.61
2022-08-20T15:02:54.446Z,63.43
2022-08-20T15:05:22.367Z,63.03
2022-08-20T15:07:54.067Z,60.73
2022-08-20T15:10:26.335Z,60.45
2022-08-20T15:12:54.352Z,61.54
2022-08-20T15:15:23.973Z,58.88
2022-08-20T15:17:55.932Z,58.53
2022-08-20T15:20:26.677Z,60.45
2022-08-20T15:22:55.277Z,63.37
2022-08-20T15:25:36.444Z,63.83
2022-08-20T15:28:08.231Z,64.84
2022-08-20T15:30:36.812Z,65.05
2022-08-20T15:33:06.308Z,67.63
2022-08-20T15:35:34.269Z,65.61
2022-08-20T15:38:02.851Z,63.70
2022-08-20T15:40:33.568Z,63.21
2022-08-20T15:43:02.940Z,66.20
2022-08-20T15:45:31.266Z,66.62
2022-08-20T15:48:07.839Z,68.78
2022-08-20T15:50:49.288Z,67.04
2022-08-20T15:53:21.690Z,68.40
2022-08-20T15:56:11.302Z,71.64
2022-08-20T15:58:52.563Z,67.91
2022-08-20T16:01:29.503Z,69.15
2022-08-20T16:04:28.788Z,73.03
2022-08-20T16:07:02.585Z,71.45
2022-08-20T16:09:45.594Z,70.44
2022-08-20T16:12:18.647Z,71.50
2022-08-20T16:14:50.134Z,76.02
2022-08-20T16:17:27.031Z,74.34
2022-08-20T16:20:03.572Z,73.68
2022-08-20T16:22:33.192Z,76.61
2022-08-20T16:25:01.407Z,75.85
2022-08-20T16:27:36.395Z,76.47
2022-08-20T16:30:08.596Z,78.69
2022-08-20T16:32:44.609Z,80.46
2022-08-20T16:35:30.097Z,80.53
2022-08-20T16:38:20.763Z,77.77
2022-08-20T16:40:55.487Z,77.51
2022-08-20T16:43:28.667Z,78.85
2022-08-20T16:46:02.995Z,79.72
2022-08-20T16:48:39.856Z,77.76
2022-08-20T16:51:14.295Z,78.44
2022-08-20T16:53:43.944Z,79.88
2022-08-20T16:56:11.898Z,78.96
2022-08-20T16:58:40.384Z,76.97
2022-08-20T17:01:12.945Z,78.98
2022-08-20T17:03:50.046Z,80.59
2022-08-20T17:06:25.889Z,80.28
2022-08-20T17:08:55.298Z,78.94
2022-08-20T17:11:26.320Z,78.95
2022-08-20T17:14:05.713Z,78.93
2022-08-20T17:16:35.439Z,80.75
2022-08-20T17:19:11.176Z,79.44
2022-08-20T17:21:40.045Z,78.13
2022-08-20T17:24:16.565Z,78.95
2022-08-20T17:26:47.805Z,80.64
2022-08-20T17:29:18.500Z,77.78
2022-08-20T17:31:49.157Z,78.34
2022-08-20T17:34:19.853Z,86.09
2022-08-20T17:36:54.600Z,87.74
2022-08-20T17:39:26.161Z,87.77
2022-08-20T17:41:58.420Z,90.26
2022-08-20T17:44:30.356Z,89.60
2022-08-20T17:47:02.348Z,86.70
2022-08-20T17:49:35.535Z,85.67
2022-08-20T17:52:06.943Z,86.79
2022-08-20T17:54:41.699Z,86.29
2022-08-20T17:58:01.334Z,88.53
2022-08-20T18:00:29.639Z,90.58
2022-08-20T18:03:00.633Z,88.74
2022-08-20T18:05:55.133Z,83.32
2022-08-20T18:08:41.181Z,89.68
2022-08-20T18:11:26.051Z,90.57
2022-08-20T18:14:04.127Z,91.36
2022-08-20T18:16:42.484Z,88.24
2022-08-20T18:19:16.094Z,88.86
2022-08-20T18:22:05.262Z,90.88
2022-08-20T18:24:41.340Z,90.49
2022-08-20T18:27:15.782Z,88.74
2022-08-20T18:29:46.940Z,91.13
2022-08-20T18:32:28.676Z,90.82
2022-08-20T18:35:09.855Z,91.08
2022-08-20T18:37:37.844Z,90.33
2022-08-20T18:40:10.390Z,90.22
2022-08-20T18:42:39.664Z,90.42
2022-08-20T18:45:08.649Z,91.09
2022-08-20T18:47:47.355Z,92.00
2022-08-20T18:50:24.969Z,92.28
2022-08-20T18:53:06.372Z,90.54
2022-08-20T18:55:37.484Z,92.03
2022-08-20T18:58:09.377Z,94.61
2022-08-20T19:00:44.693Z,93.73
2022-08-20T19:03:22.638Z,93.06
2022-08-20T19:06:08.404Z,93.69
2022-08-20T19:08:45.904Z,96.81
2022-08-20T19:11:43.166Z,97.99
2022-08-20T19:14:46.966Z,99.19
2022-08-20T19:17:19.669Z,97.44
2022-08-20T19:20:01.746Z,97.41
2022-08-20T19:22:35.609Z,98.15
2022-08-20T19:25:06.127Z,98.58
2022-08-20T19:27:34.463Z,98.98
2022-08-20T19:30:04.038Z,99.40
2022-08-20T19:32:46.343Z,100.00
2022-08-20T19:35:21.071Z,100.00
2022-08-20T19:37:50.542Z,100.00
2022-08-20T19:40:30.644Z,100.00
2022-08-20T19:43:05.856Z,100.00
2022-08-20T19:45:40.096Z,100.00
2022-08-20T19:48:32.215Z,100.00
2022-08-20T19:51:07.871Z,100.00
2022-08-20T19:53:38.254Z,100.00
2022-08-20T19:56:14.505Z,100.00
2022-08-20T19:58:45.536Z,100.00
2022-08-20T20:01:21.681Z,100.00
2022-08-20T20:03:58.576Z,100.00
2022-08-20T20:06:36.222Z,100.00
2022-08-20T20:09:09.023Z,100.00
2022-08-20T20:11:41.391Z,100.00
2022-08-20T20:14:12.938Z,100.00
2022-08-20T20:16:43.919Z,100.00
2022-08-20T20:19:29.626Z,100.00
2022-08-20T20:22:19.023Z,100.00
2022-08-20T20:24:58.055Z,100.00
2022-08-20T20:27:29.039Z,100.00
2022-08-20T20:30:01.145Z,100.00
2022-08-20T20:32:33.740Z,100.00
2022-08-20T20:35:05.836Z,100.00
2022-08-20T20:37:49.922Z,100.00
2022-08-20T20:40:25.250Z,100.00
2022-08-20T20:43:04.636Z,100.00
2022-08-20T20:45:36.155Z,100.00
2022-08-20T20:48:18.117Z,100.00
2022-08-20T20:50:47.508Z,100.00
2022-08-20T20:53:25.639Z,100.00
2022-08-20T20:56:36.844Z,100.00
2022-08-20T20:59:07.394Z,100.00
2022-08-20T21:01:49.344Z,100.00
2022-08-20T21:04:21.250Z,100.00
2022-08-20T21:06:49.634Z,100.00
2022-08-20T21:09:18.656Z,100.00
2022-08-20T21:11:46.933Z,100.00
2022-08-20T21:14:15.373Z,100.00
2022-08-20T21:16:44.325Z,100.00
2022-08-20T21:19:13.234Z,100.00
2022-08-20T21:21:43.861Z,100.00
2022-08-20T21:24:12.135Z,100.00
2022-08-20T21:26:40.784Z,100.00
2022-08-20T21:29:12.212Z,100.00
2022-08-20T21:31:44.021Z,100.00
2022-08-20T21:34:13.341Z,100.00
2022-08-20T21:36:42.864Z,100.00
2022-08-20T21:39:11.562Z,100.00
2022-08-20T21:41:42.809Z,100.00
2022-08-20T21:44:13.635Z,100.00
2022-08-20T21:46:41.524Z,100.00
2022-08-20T21:49:09.405Z,100.00
2022-08-20T21:51:37.441Z,100.00
2022-08-20T21:54:07.023Z,100.00
2022-08-20T21:56:36.858Z,100.00
2022-08-20T21:59:05.737Z,100.00
2022-08-20T22:01:33.608Z,100.00
2022-08-20T22:04:01.902Z,100.00
2022-08-20T22:06:29.754Z,100.00
2022-08-20T22:08:57.672Z,100.00
2022-08-20T22:11:27.878Z,100.00
2022-08-20T22:13:56.111Z,100.00
2022-08-20T22:16:24.710Z,100.00
2022-08-20T22:18:52.679Z,100.00
2022-08-20T22:21:23.681Z,100.00
2022-08-20T22:23:52.712Z,100.00
2022-08-20T22:26:21.415Z,100.00
2022-08-20T22:28:50.928Z,100.00
2022-08-20T22:31:22.473Z,100.00
2022-08-20T22:33:50.303Z,100.00
2022-08-20T22:36:18.494Z,100.00
2022-08-20T22:38:47.314Z,100.00
2022-08-20T22:41:23.543Z,100.00
2022-08-20T22:43:55.768Z,100.00
2022-08-20T22:46:27.172Z,100.00
2022-08-20T22:48:55.797Z,100.00
2022-08-20T22:51:27.824Z,100.00
2022-08-20T22:53:56.119Z,100.00
2022-08-20T22:56:24.037Z,100.00
2022-08-20T22:58:54.098Z,100.00
2022-08-20T23:01:22.400Z,100.00
2022-08-20T23:03:50.338Z,100.00
2022-08-20T23:06:18.835Z,100.00
2022-08-20T23:08:46.886Z,100.00
2022-08-20T23:11:14.806Z,100.00
2022-08-20T23:13:42.727Z,100.00
2022-08-20T23:16:11.998Z,100.00
2022-08-20T23:18:39.999Z,100.00
2022-08-20T23:21:08.129Z,100.00
2022-08-20T23:23:35.970Z,100.00
2022-08-20T23:26:03.915Z,100.00
2022-08-20T23:28:31.874Z,100.00
2022-08-20T23:30:59.720Z,100.00
2022-08-20T23:33:29.160Z,100.00
2022-08-20T23:35:57.317Z,100.00
2022-08-20T23:38:25.185Z,100.00
2022-08-20T23:40:53.080Z,100.00
2022-08-20T23:43:21.110Z,100.00
2022-08-20T23:45:49.073Z,100.00
2022-08-20T23:48:17.063Z,100.00
2022-08-20T23:50:46.606Z,100.00
2022-08-20T23:53:14.737Z,100.00
2022-08-20T23:55:42.844Z,100.00
2022-08-20T23:58:11.135Z,100.00
